createdAt,value
2019-05-29T00:01:10.494Z,45.70
2019-05-29T00:03:49.310Z,47.57
2019-05-29T00:06:30.036Z,44.53
2019-05-29T00:09:10.649Z,42.57
2019-05-29T00:11:51.639Z,44.97
2019-05-29T00:14:32.599Z,42.50
2019-05-29T00:17:14.585Z,45.13
2019-05-29T00:19:54.506Z,41.97
2019-05-29T00:22:35.157Z,40.03
2019-05-29T00:25:16.679Z,40.80
2019-05-29T00:27:57.081Z,38.07
2019-05-29T00:30:38.039Z,39.70
2019-05-29T00:33:19.004Z,40.17
2019-05-29T00:35:59.617Z,40.77
2019-05-29T00:38:40.325Z,53.97
2019-05-29T00:41:20.789Z,41.70
2019-05-29T00:44:01.891Z,40.27
2019-05-29T00:46:42.521Z,39.80
2019-05-29T00:49:23.505Z,38.63
2019-05-29T00:52:04.444Z,39.77
2019-05-29T00:54:45.200Z,37.17
2019-05-29T00:57:25.518Z,34.25
2019-05-29T01:00:05.891Z,35.13
2019-05-29T01:02:46.905Z,34.93
2019-05-29T01:05:27.647Z,34.10
2019-05-29T01:08:08.387Z,33.70
2019-05-29T01:10:48.932Z,33.40
2019-05-29T01:13:29.588Z,34.40
2019-05-29T01:16:11.312Z,34.13
2019-05-29T01:18:51.808Z,33.37
2019-05-29T01:21:32.510Z,33.53
2019-05-29T01:24:12.756Z,31.97
2019-05-29T01:26:54.038Z,33.77
2019-05-29T01:29:34.131Z,32.50
2019-05-29T01:32:15.483Z,33.03
2019-05-29T01:34:55.480Z,34.27
2019-05-29T01:37:36.307Z,32.67
2019-05-29T01:40:22.114Z,34.33
2019-05-29T01:42:58.195Z,32.90
2019-05-29T01:45:38.516Z,34.13
2019-05-29T01:48:19.535Z,33.90
2019-05-29T01:51:00.126Z,32.40
2019-05-29T01:53:41.081Z,31.33
2019-05-29T01:56:21.921Z,31.02
2019-05-29T01:59:02.417Z,32.23
2019-05-29T02:01:42.998Z,32.73
2019-05-29T02:04:24.214Z,34.37
2019-05-29T02:07:04.397Z,34.07
2019-05-29T02:09:45.246Z,33.63
2019-05-29T02:12:26.420Z,35.13
2019-05-29T02:15:21.083Z,34.83
2019-05-29T02:17:48.397Z,35.83
2019-05-29T02:20:28.758Z,34.83
2019-05-29T02:23:09.403Z,35.33
2019-05-29T02:25:50.368Z,36.00
2019-05-29T02:28:30.686Z,34.90
2019-05-29T02:31:11.974Z,35.67
2019-05-29T02:33:52.599Z,35.63
2019-05-29T02:36:33.593Z,34.67
2019-05-29T02:39:13.861Z,35.47
2019-05-29T02:41:54.218Z,33.50
2019-05-29T02:44:34.850Z,35.10
2019-05-29T02:47:15.547Z,33.95
2019-05-29T02:49:55.600Z,32.17
2019-05-29T02:52:36.439Z,33.30
2019-05-29T02:55:16.857Z,32.73
2019-05-29T02:57:57.628Z,33.30
2019-05-29T03:03:21.469Z,32.50
2019-05-29T03:06:01.380Z,31.48
2019-05-29T03:08:42.157Z,30.73
2019-05-29T03:11:23.074Z,31.37
2019-05-29T03:14:04.639Z,30.85
2019-05-29T03:16:45.395Z,30.27
2019-05-29T03:19:27.892Z,31.00
2019-05-29T03:22:07.978Z,30.30
2019-05-29T03:24:48.934Z,29.60
2019-05-29T05:22:46.707Z,22.48
2019-05-29T05:25:27.696Z,23.47
2019-05-29T05:28:09.092Z,23.62
2019-05-29T05:30:50.178Z,21.77
2019-05-29T05:33:32.421Z,22.62
2019-05-29T05:36:13.528Z,24.02
2019-05-29T05:38:54.412Z,22.50
2019-05-29T05:41:36.852Z,23.95
2019-05-29T05:44:17.642Z,23.20
2019-05-29T05:46:58.120Z,22.20
2019-05-29T05:49:39.407Z,21.93
2019-05-29T05:52:19.673Z,23.00
2019-05-29T05:55:00.223Z,23.10
2019-05-29T05:57:43.865Z,24.25
2019-05-29T06:00:24.714Z,24.43
2019-05-29T06:03:05.171Z,24.07
2019-05-29T06:05:45.283Z,22.65
2019-05-29T06:08:26.321Z,21.10
2019-05-29T06:11:07.866Z,21.90
2019-05-29T06:13:48.705Z,21.82
2019-05-29T06:16:28.858Z,21.42
2019-05-29T06:19:09.402Z,22.90
2019-05-29T06:21:49.512Z,22.75
2019-05-29T06:24:30.139Z,23.05
2019-05-29T06:27:10.439Z,21.82
2019-05-29T06:29:50.941Z,23.73
2019-05-29T06:32:31.458Z,23.65
2019-05-29T06:35:12.147Z,21.17
2019-05-29T06:37:52.526Z,21.57
2019-05-29T06:40:33.963Z,21.20
2019-05-29T06:43:13.508Z,22.87
2019-05-29T06:45:54.214Z,23.30
2019-05-29T06:48:53.550Z,23.52
2019-05-29T06:51:15.741Z,22.30
2019-05-29T06:53:55.668Z,22.15
2019-05-29T06:56:40.063Z,21.17
2019-05-29T06:59:24.103Z,20.68
2019-05-29T07:02:12.376Z,22.32
2019-05-29T07:04:58.726Z,23.18
2019-05-29T07:07:40.554Z,22.75
2019-05-29T07:10:21.021Z,23.05
2019-05-29T07:13:01.769Z,22.85
2019-05-29T07:15:42.921Z,23.83
2019-05-29T07:18:23.431Z,22.75
2019-05-29T07:21:04.074Z,23.52
2019-05-29T07:23:45.197Z,23.70
2019-05-29T07:26:25.583Z,24.63
2019-05-29T07:29:08.286Z,24.57
2019-05-29T07:31:47.288Z,24.10
2019-05-29T07:34:28.639Z,24.82
2019-05-29T07:37:09.311Z,24.20
2019-05-29T07:39:49.825Z,24.10
2019-05-29T07:42:30.210Z,23.25
2019-05-29T07:45:11.098Z,24.18
2019-05-29T07:47:51.972Z,24.30
2019-05-29T07:50:33.269Z,24.23
2019-05-29T07:53:13.961Z,25.70
2019-05-29T07:55:54.837Z,25.35
2019-05-29T07:58:35.520Z,25.77
2019-05-29T08:01:16.650Z,26.40
2019-05-29T08:03:57.755Z,24.30
2019-05-29T08:06:45.402Z,25.82
2019-05-29T08:09:20.916Z,26.17
2019-05-29T08:12:01.541Z,26.52
2019-05-29T08:14:42.080Z,25.00
2019-05-29T08:17:22.705Z,24.95
2019-05-29T08:20:07.603Z,25.48
2019-05-29T08:22:44.576Z,24.82
2019-05-29T08:25:25.199Z,26.37
2019-05-29T08:28:05.836Z,25.35
2019-05-29T08:30:51.735Z,24.52
2019-05-29T08:33:28.730Z,25.02
2019-05-29T08:36:09.576Z,25.32
2019-05-29T08:38:51.535Z,25.40
2019-05-29T08:41:30.954Z,24.98
2019-05-29T08:44:11.171Z,24.77
2019-05-29T08:47:04.226Z,24.65
2019-05-29T08:49:31.705Z,23.85
2019-05-29T08:52:12.690Z,24.32
2019-05-29T08:54:53.210Z,23.62
2019-05-29T08:57:33.352Z,23.35
2019-05-29T09:00:14.311Z,24.15
2019-05-29T09:02:54.862Z,25.15
2019-05-29T09:05:35.133Z,25.40
2019-05-29T09:08:15.539Z,23.77
2019-05-29T09:10:56.488Z,24.65
2019-05-29T09:13:37.054Z,22.22
2019-05-29T09:16:17.357Z,22.65
2019-05-29T09:18:57.858Z,24.25
2019-05-29T09:21:38.189Z,24.02
2019-05-29T09:24:19.373Z,25.00
2019-05-29T09:27:00.057Z,22.95
2019-05-29T09:29:40.720Z,24.05
2019-05-29T09:32:46.450Z,23.05
2019-05-29T09:35:02.864Z,23.90
2019-05-29T09:37:43.638Z,23.20
2019-05-29T09:40:25.018Z,23.02
2019-05-29T09:43:05.423Z,23.70
2019-05-29T09:45:46.529Z,23.27
2019-05-29T09:48:24.834Z,22.00
2019-05-29T09:50:52.133Z,22.35
2019-05-29T09:53:22.025Z,21.48
2019-05-29T09:55:52.257Z,22.45
2019-05-29T09:58:22.962Z,22.07
2019-05-29T10:01:16.207Z,23.40
2019-05-29T10:03:24.098Z,23.02
2019-05-29T10:05:55.656Z,23.02
2019-05-29T10:08:24.932Z,21.93
2019-05-29T10:11:01.427Z,23.70
2019-05-29T10:13:25.100Z,21.95
2019-05-29T10:15:55.946Z,21.68
2019-05-29T10:18:32.057Z,21.75
2019-05-29T10:20:56.497Z,21.95
2019-05-29T10:23:25.510Z,21.35
2019-05-29T10:25:56.467Z,22.20
2019-05-29T10:28:25.705Z,21.68
2019-05-29T10:30:55.332Z,22.55
2019-05-29T10:33:25.410Z,22.85
2019-05-29T10:35:55.507Z,22.02
2019-05-29T10:38:24.786Z,22.37
2019-05-29T10:41:05.273Z,21.45
2019-05-29T10:43:33.707Z,21.25
2019-05-29T10:45:54.493Z,20.37
2019-05-29T10:48:24.361Z,21.00
2019-05-29T10:50:55.339Z,21.87
2019-05-29T10:53:24.250Z,22.00
2019-05-29T10:55:54.906Z,22.05
2019-05-29T10:59:34.039Z,22.40
2019-05-29T11:02:03.762Z,21.20
2019-05-29T11:04:33.596Z,22.20
2019-05-29T11:07:03.062Z,23.12
2019-05-29T11:09:43.866Z,22.13
2019-05-29T11:12:03.116Z,23.15
2019-05-29T11:14:32.907Z,22.87
2019-05-29T11:17:02.448Z,22.73
2019-05-29T11:19:31.819Z,24.57
2019-05-29T11:22:22.570Z,24.87
2019-05-29T11:24:32.314Z,24.65
2019-05-29T11:27:02.368Z,25.37
2019-05-29T11:29:31.735Z,24.60
2019-05-29T11:32:01.188Z,25.75
2019-05-29T11:34:30.709Z,25.12
2019-05-29T11:37:00.359Z,25.30
2019-05-29T11:39:30.032Z,27.17
2019-05-29T11:41:59.707Z,25.85
2019-05-29T11:44:29.727Z,26.12
2019-05-29T11:47:00.221Z,25.02
2019-05-29T11:49:29.887Z,24.05
2019-05-29T11:52:21.676Z,25.70
2019-05-29T11:54:30.563Z,25.48
2019-05-29T11:57:00.676Z,26.42
2019-05-29T11:59:30.782Z,26.37
2019-05-29T12:02:01.034Z,25.40
2019-05-29T12:04:30.779Z,26.55
2019-05-29T12:07:01.489Z,26.27
2019-05-29T12:09:33.320Z,28.42
2019-05-29T12:12:02.164Z,29.20
2019-05-29T12:14:31.418Z,37.85
2019-05-29T12:17:02.586Z,26.93
2019-05-29T12:19:31.710Z,29.93
2019-05-29T12:22:02.578Z,27.77
2019-05-29T12:24:31.216Z,31.43
2019-05-29T12:27:02.658Z,29.37
2019-05-29T12:29:32.769Z,29.27
2019-05-29T12:32:07.410Z,29.92
2019-05-29T12:34:32.869Z,28.75
2019-05-29T12:37:03.729Z,29.57
2019-05-29T12:39:32.943Z,28.57
2019-05-29T12:42:03.806Z,28.87
2019-05-29T12:44:32.979Z,30.20
2019-05-29T12:47:04.043Z,29.92
2019-05-29T12:49:33.080Z,29.23
2019-05-29T12:52:06.610Z,29.18
2019-05-29T12:54:33.172Z,29.43
2019-05-29T12:57:05.362Z,30.72
2019-05-29T12:59:35.722Z,29.87
2019-05-29T13:02:05.441Z,31.37
2019-05-29T13:05:05.056Z,31.83
2019-05-29T13:07:05.860Z,31.80
2019-05-29T13:09:35.366Z,31.90
2019-05-29T13:12:05.077Z,31.80
2019-05-29T13:14:34.620Z,32.40
2019-05-29T13:17:05.213Z,31.37
2019-05-29T13:19:34.232Z,36.03
2019-05-29T13:22:05.782Z,37.10
2019-05-29T13:24:34.277Z,38.73
2019-05-29T13:27:03.827Z,36.87
2019-05-29T13:29:33.367Z,36.17
2019-05-29T13:32:05.236Z,35.23
2019-05-29T13:34:33.259Z,34.03
2019-05-29T13:37:04.730Z,34.23
2019-05-29T13:39:33.013Z,32.83
2019-05-29T13:42:08.629Z,34.97
2019-05-29T13:44:33.122Z,34.37
2019-05-29T13:47:04.116Z,33.27
2019-05-29T13:49:34.114Z,33.83
2019-05-29T13:52:08.276Z,33.90
2019-05-29T13:54:33.778Z,32.83
2019-05-29T13:57:04.526Z,32.93
2019-05-29T13:59:33.401Z,32.73
2019-05-29T14:02:05.792Z,32.53
2019-05-29T14:04:34.660Z,32.37
2019-05-29T14:07:04.948Z,32.63
2019-05-29T14:09:34.229Z,32.63
2019-05-29T14:12:05.090Z,31.00
2019-05-29T14:14:34.228Z,31.53
2019-05-29T14:17:04.555Z,31.77
2019-05-29T14:19:35.377Z,30.53
2019-05-29T14:22:05.104Z,31.37
2019-05-29T14:24:35.159Z,33.13
2019-05-29T14:27:05.369Z,32.83
2019-05-29T14:29:35.642Z,32.90
2019-05-29T14:32:07.230Z,33.30
2019-05-29T14:34:40.444Z,35.50
2019-05-29T14:37:11.930Z,32.60
2019-05-29T14:39:42.188Z,32.97
2019-05-29T14:42:13.282Z,35.33
2019-05-29T14:44:43.199Z,33.83
2019-05-29T14:47:13.446Z,34.17
2019-05-29T14:49:45.333Z,34.00
2019-05-29T14:52:15.249Z,33.90
2019-05-29T14:54:47.619Z,33.13
2019-05-29T14:57:25.196Z,33.47
2019-05-29T14:59:48.479Z,33.73
2019-05-29T15:02:23.533Z,33.70
2019-05-29T15:04:52.181Z,35.43
2019-05-29T15:07:23.365Z,34.67
2019-05-29T15:09:54.463Z,34.23
2019-05-29T15:12:27.956Z,35.30
2019-05-29T15:14:57.787Z,34.47
2019-05-29T15:17:29.009Z,34.63
2019-05-29T15:19:58.370Z,33.37
2019-05-29T15:22:27.551Z,32.50
2019-05-29T15:25:04.773Z,33.63
2019-05-29T15:27:28.599Z,33.13
2019-05-29T15:29:58.145Z,33.37
2019-05-29T15:32:27.595Z,35.00
2019-05-29T15:34:57.323Z,36.13
2019-05-29T15:37:27.127Z,34.37
2019-05-29T15:39:57.154Z,35.57
2019-05-29T15:42:27.257Z,35.13
2019-05-29T15:44:56.938Z,35.73
2019-05-29T15:47:26.872Z,34.87
2019-05-29T15:49:56.932Z,37.23
2019-05-29T15:52:27.387Z,37.03
2019-05-29T15:54:57.831Z,37.87
2019-05-29T15:57:28.568Z,38.27
2019-05-29T15:59:58.359Z,36.77
2019-05-29T16:02:29.128Z,37.47
2019-05-29T16:04:59.449Z,37.10
2019-05-29T16:07:31.254Z,35.90
2019-05-29T16:10:01.012Z,36.70
2019-05-29T16:12:31.409Z,36.40
2019-05-29T16:15:01.413Z,37.20
2019-05-29T16:17:31.148Z,39.60
2019-05-29T16:20:00.574Z,39.23
2019-05-29T16:22:32.558Z,36.77
2019-05-29T16:25:02.624Z,36.87
2019-05-29T16:27:31.796Z,36.90
2019-05-29T16:30:00.677Z,35.37
2019-05-29T16:32:30.319Z,37.67
2019-05-29T16:34:59.738Z,36.37
2019-05-29T16:37:29.325Z,37.43
2019-05-29T16:39:59.281Z,36.37
2019-05-29T16:42:29.086Z,36.60
2019-05-29T16:45:00.321Z,35.20
2019-05-29T16:47:30.205Z,36.07
2019-05-29T16:49:59.960Z,34.17
2019-05-29T16:52:30.672Z,35.83
2019-05-29T16:55:00.421Z,34.43
2019-05-29T16:57:30.094Z,34.77
2019-05-29T17:00:01.184Z,34.93
2019-05-29T17:02:31.258Z,34.07
2019-05-29T17:05:01.397Z,34.03
2019-05-29T17:07:31.481Z,35.17
2019-05-29T17:10:01.309Z,33.80
2019-05-29T17:12:31.388Z,34.10
2019-05-29T17:15:00.556Z,33.27
2019-05-29T17:17:30.673Z,33.33
2019-05-29T17:20:00.353Z,33.90
2019-05-29T17:22:30.250Z,35.13
2019-05-29T17:25:01.085Z,35.00
2019-05-29T17:27:31.311Z,36.13
2019-05-29T17:30:00.809Z,38.20
2019-05-29T17:32:32.770Z,36.40
2019-05-29T17:35:02.426Z,38.33
2019-05-29T17:37:32.120Z,35.40
2019-05-29T17:40:01.470Z,34.10
2019-05-29T17:42:31.310Z,35.47
2019-05-29T17:45:00.908Z,33.60
2019-05-29T17:47:31.336Z,33.63
2019-05-29T17:50:01.356Z,35.03
2019-05-29T17:52:31.105Z,33.10
2019-05-29T17:55:01.054Z,35.07
2019-05-29T17:57:30.450Z,35.90
2019-05-29T18:00:02.748Z,35.10
2019-05-29T18:02:32.287Z,33.97
2019-05-29T18:05:02.299Z,33.03
2019-05-29T18:07:31.669Z,31.90
2019-05-29T18:10:01.058Z,33.77
2019-05-29T18:12:31.081Z,32.80
2019-05-29T18:15:01.197Z,31.70
2019-05-29T18:20:14.698Z,32.50
2019-05-29T18:22:42.830Z,32.30
2019-05-29T18:25:13.864Z,32.13
2019-05-29T18:27:44.381Z,33.83
2019-05-29T18:30:13.646Z,31.33
2019-05-29T18:32:43.724Z,31.27
2019-05-29T18:35:13.311Z,33.23
2019-05-29T18:37:42.816Z,33.73
2019-05-29T18:40:13.002Z,32.13
2019-05-29T18:42:42.797Z,31.50
2019-05-29T18:45:20.375Z,31.23
2019-05-29T18:47:42.626Z,30.93
2019-05-29T18:50:12.724Z,29.90
2019-05-29T18:52:42.724Z,30.50
2019-05-29T18:55:13.127Z,30.30
2019-05-29T18:57:43.377Z,28.90
2019-05-29T19:00:13.052Z,30.17
2019-05-29T19:02:42.660Z,28.83
2019-05-29T19:05:12.362Z,29.60
2019-05-29T19:07:42.709Z,29.70
2019-05-29T19:10:13.106Z,28.17
2019-05-29T19:12:43.264Z,27.90
2019-05-29T19:15:13.334Z,28.83
2019-05-29T19:17:43.203Z,28.67
2019-05-29T19:20:13.476Z,29.57
2019-05-29T19:22:43.553Z,29.47
2019-05-29T19:25:13.207Z,28.27
2019-05-29T19:27:43.004Z,29.90
2019-05-29T19:30:13.173Z,28.20
2019-05-29T19:32:42.581Z,28.10
2019-05-29T19:35:12.595Z,28.00
2019-05-29T19:37:42.478Z,26.83
2019-05-29T19:40:12.818Z,26.97
2019-05-29T19:42:42.558Z,29.37
2019-05-29T19:45:13.567Z,28.43
2019-05-29T19:47:46.203Z,28.57
2019-05-29T19:50:16.349Z,28.90
2019-05-29T19:52:46.367Z,28.43
2019-05-29T19:55:16.488Z,28.87
2019-05-29T19:57:55.465Z,27.33
2019-05-29T20:00:16.622Z,28.80
2019-05-29T20:02:46.690Z,28.27
2019-05-29T20:05:16.628Z,26.33
2019-05-29T20:07:47.054Z,28.30
2019-05-29T20:10:16.948Z,28.00
2019-05-29T20:12:46.999Z,27.80
2019-05-29T20:15:16.509Z,28.10
2019-05-29T20:17:46.434Z,28.17
2019-05-29T20:20:16.760Z,27.70
2019-05-29T20:22:47.527Z,28.20
2019-05-29T20:25:17.991Z,27.00
2019-05-29T20:27:49.078Z,28.63
2019-05-29T20:30:19.197Z,28.60
2019-05-29T20:32:48.867Z,27.33
2019-05-29T20:35:19.449Z,26.90
2019-05-29T20:37:49.315Z,28.50
2019-05-29T20:40:19.159Z,27.27
2019-05-29T20:42:49.252Z,29.47
2019-05-29T20:45:19.059Z,27.77
2019-05-29T20:47:48.938Z,28.63
2019-05-29T20:50:18.532Z,29.10
2019-05-29T20:52:48.930Z,28.13
2019-05-29T20:55:18.370Z,26.80
2019-05-29T20:57:48.495Z,26.83
2019-05-29T21:00:18.267Z,27.13
2019-05-29T21:02:48.288Z,26.10
2019-05-29T21:05:18.073Z,25.30
2019-05-29T21:07:48.211Z,25.93
2019-05-29T21:10:17.807Z,25.93
2019-05-29T21:12:47.972Z,27.13
2019-05-29T21:15:18.621Z,27.80
2019-05-29T21:17:48.176Z,27.33
2019-05-29T21:20:18.539Z,27.93
2019-05-29T21:22:48.286Z,29.93
2019-05-29T21:25:19.352Z,29.93
2019-05-29T21:27:49.612Z,29.47
2019-05-29T21:30:19.490Z,30.10
2019-05-29T21:32:49.885Z,27.03
2019-05-29T21:35:19.662Z,28.23
2019-05-29T21:37:49.270Z,26.37
2019-05-29T21:40:19.033Z,26.23
2019-05-29T21:42:49.247Z,27.53
2019-05-29T21:45:19.995Z,27.10
2019-05-29T21:47:49.738Z,28.00
2019-05-29T21:50:19.178Z,26.70
2019-05-29T21:52:48.964Z,28.77
2019-05-29T21:55:18.488Z,28.20
2019-05-29T21:57:50.400Z,28.20
2019-05-29T22:00:20.451Z,28.20
2019-05-29T22:02:50.253Z,27.83
2019-05-29T22:05:19.973Z,29.33
2019-05-29T22:07:49.464Z,27.83
2019-05-29T22:10:19.803Z,27.70
2019-05-29T22:12:50.246Z,28.07
2019-05-29T22:15:18.980Z,27.97
2019-05-29T22:17:50.571Z,27.27
2019-05-29T22:20:19.478Z,27.50
2019-05-29T22:22:50.960Z,27.40
2019-05-29T22:25:19.810Z,29.10
2019-05-29T22:27:51.174Z,26.93
2019-05-29T22:30:19.907Z,27.27
2019-05-29T22:32:49.605Z,27.67
2019-05-29T22:35:18.952Z,28.80
2019-05-29T22:37:49.146Z,27.83
2019-05-29T22:40:19.331Z,27.37
2019-05-29T22:42:49.082Z,28.00
2019-05-29T22:45:19.060Z,25.97
2019-05-29T22:47:48.781Z,28.90
2019-05-29T22:50:19.057Z,26.40
2019-05-29T22:52:48.927Z,27.20
2019-05-29T22:55:18.997Z,26.83
2019-05-29T22:57:48.600Z,26.70
2019-05-29T23:00:18.530Z,27.83
2019-05-29T23:02:48.602Z,25.43
2019-05-29T23:05:18.483Z,26.43
2019-05-29T23:07:47.858Z,28.20
2019-05-29T23:10:17.712Z,28.13
2019-05-29T23:12:47.636Z,29.87
2019-05-29T23:15:17.496Z,27.40
2019-05-29T23:17:47.770Z,27.83
2019-05-29T23:20:17.237Z,30.50
2019-05-29T23:22:46.860Z,29.43
2019-05-29T23:25:17.515Z,30.23
2019-05-29T23:27:47.197Z,32.63
2019-05-29T23:30:17.564Z,31.37
2019-05-29T23:32:47.979Z,29.53
2019-05-29T23:35:17.859Z,30.67
2019-05-29T23:37:48.157Z,31.33
2019-05-29T23:40:17.833Z,27.70
2019-05-29T23:42:48.155Z,30.47
2019-05-29T23:45:18.362Z,32.23
2019-05-29T23:47:48.460Z,31.70
2019-05-29T23:50:18.356Z,30.93
2019-05-29T23:52:48.019Z,32.27
2019-05-29T23:55:18.114Z,33.67
2019-05-29T23:57:48.038Z,34.57
